Time;durP1;ratioP1;P1;durP2;ratioP2;P2;SDS_P1;SDS_P2;PMS_P1;PMS_P2;Temp;Humidity;BMP_temperature;BMP_pressure;BME280_temperature;BME280_humidity;BME280_pressure;Samples;Min_cycle;Max_cycle;Signal;HPM_P1;HPM_P2
2023/07/03 00:02:21;;;;;;;26.27;6.43;;;;;;;;;;5070047;28;20067;-60
2023/07/03 00:04:47;;;;;;;25.53;6.30;;;;;;;;;;5070139;28;20039;-60
2023/07/03 00:07:14;;;;;;;19.87;5.87;;;;;;;;;;5069974;28;20151;-61
2023/07/03 00:09:40;;;;;;;18.70;5.83;;;;;;;;;;5069904;28;20465;-61
2023/07/03 00:12:06;;;;;;;20.93;6.30;;;;;;;;;;5070095;28;20082;-61
2023/07/03 00:14:32;;;;;;;19.07;7.27;;;;;;;;;;5069595;28;20428;-61
2023/07/03 00:16:58;;;;;;;21.30;6.07;;;;;;;;;;5069818;28;20063;-60
2023/07/03 00:19:26;;;;;;;25.73;6.20;;;;;;;;;;5069944;28;20059;-60
2023/07/03 00:21:52;;;;;;;24.23;5.97;;;;;;;;;;5069640;28;20447;-61
2023/07/03 00:24:19;;;;;;;22.53;6.63;;;;;;;;;;5069028;28;20051;-61
2023/07/03 00:26:45;;;;;;;24.93;6.40;;;;;;;;;;5068303;28;20490;-61
2023/07/03 00:29:10;;;;;;;20.57;6.33;;;;;;;;;;5069738;28;20049;-60
2023/07/03 00:31:36;;;;;;;21.90;5.70;;;;;;;;;;5069462;28;20075;-60
2023/07/03 00:34:02;;;;;;;21.27;6.13;;;;;;;;;;5069056;28;20052;-60
2023/07/03 00:36:28;;;;;;;19.43;6.23;;;;;;;;;;5069135;28;20068;-61
2023/07/03 00:38:57;;;;;;;20.70;6.27;;;;;;;;;;5069564;28;20045;-61
2023/07/03 00:41:24;;;;;;;21.17;6.20;;;;;;;;;;5069469;28;20089;-61
2023/07/03 00:43:50;;;;;;;17.33;5.83;;;;;;;;;;5068693;28;20093;-61
2023/07/03 00:46:16;;;;;;;26.40;6.27;;;;;;;;;;5069201;28;20052;-60
2023/07/03 00:48:42;;;;;;;25.73;7.23;;;;;;;;;;5068943;28;20045;-60
2023/07/03 00:51:10;;;;;;;23.40;6.20;;;;;;;;;;5068938;28;20502;-61
2023/07/03 00:53:36;;;;;;;32.30;6.73;;;;;;;;;;5069254;28;20483;-60
2023/07/03 00:56:03;;;;;;;20.80;5.87;;;;;;;;;;5069246;28;20059;-62
2023/07/03 00:58:29;;;;;;;17.60;5.03;;;;;;;;;;5068934;28;20105;-60
2023/07/03 01:01:03;;;;;;;23.73;5.63;;;;;;;;;;5067902;28;20040;-60
2023/07/03 01:03:36;;;;;;;25.73;6.07;;;;;;;;;;5069210;28;20041;-60
2023/07/03 01:06:05;;;;;;;24.13;5.97;;;;;;;;;;5068177;28;20478;-61
2023/07/03 01:08:31;;;;;;;25.27;6.70;;;;;;;;;;5069123;28;20063;-60
2023/07/03 01:10:57;;;;;;;25.17;7.10;;;;;;;;;;5068979;28;20051;-60
2023/07/03 01:13:26;;;;;;;21.97;6.73;;;;;;;;;;5069066;28;20044;-60
2023/07/03 01:15:52;;;;;;;28.60;5.93;;;;;;;;;;5069082;28;20044;-60
2023/07/03 01:18:18;;;;;;;29.17;6.10;;;;;;;;;;5068364;28;20045;-61
2023/07/03 01:21:01;;;;;;;28.90;6.87;;;;;;;;;;5068304;28;20490;-60
2023/07/03 01:23:39;;;;;;;20.33;6.13;;;;;;;;;;5068955;28;20052;-60
2023/07/03 01:26:07;;;;;;;25.03;5.97;;;;;;;;;;5069176;28;20131;-60
2023/07/03 01:28:34;;;;;;;29.03;7.40;;;;;;;;;;5052456;28;20090;-60
2023/07/03 01:31:01;;;;;;;26.00;7.27;;;;;;;;;;5061089;28;20406;-60
2023/07/03 01:33:30;;;;;;;25.23;6.07;;;;;;;;;;5068319;28;20064;-61
2023/07/03 01:35:57;;;;;;;23.27;6.80;;;;;;;;;;5068524;28;20063;-60
2023/07/03 01:38:24;;;;;;;21.13;5.57;;;;;;;;;;5068452;28;20044;-61
2023/07/03 01:40:51;;;;;;;23.10;5.47;;;;;;;;;;5068611;28;20045;-61
2023/07/03 01:43:17;;;;;;;26.70;6.27;;;;;;;;;;5056926;28;20045;-61
2023/07/03 01:45:47;;;;;;;26.33;6.50;;;;;;;;;;5048227;28;20414;-61
2023/07/03 01:48:13;;;;;;;24.53;6.07;;;;;;;;;;5048106;28;20052;-61
2023/07/03 01:50:39;;;;;;;27.17;6.37;;;;;;;;;;5048087;28;20053;-60
2023/07/03 01:53:10;;;;;;;32.07;6.50;;;;;;;;;;5048392;28;20053;-60
2023/07/03 01:55:41;;;;;;;25.60;5.97;;;;;;;;;;5048483;28;21183;-60
2023/07/03 01:58:10;;;;;;;30.40;6.60;;;;;;;;;;5058296;28;20037;-60
2023/07/03 02:00:40;;;;;;;25.63;6.93;;;;;;;;;;5068186;28;20099;-61
2023/07/03 02:03:10;;;;;;;25.47;7.17;;;;;;;;;;5068179;28;20048;-61
2023/07/03 02:05:38;;;;;;;26.67;7.13;;;;;;;;;;5068304;28;20052;-61
2023/07/03 02:08:06;;;;;;;27.30;6.80;;;;;;;;;;5068220;28;20048;-61
2023/07/03 02:10:32;;;;;;;25.40;7.73;;;;;;;;;;5068384;28;20051;-60
2023/07/03 02:12:58;;;;;;;24.53;6.20;;;;;;;;;;5067532;28;20050;-60
2023/07/03 02:15:24;;;;;;;25.20;7.03;;;;;;;;;;5067834;28;20041;-60
2023/07/03 02:17:53;;;;;;;27.47;5.80;;;;;;;;;;5066600;28;20105;-60
2023/07/03 02:20:19;;;;;;;27.53;6.63;;;;;;;;;;5066208;28;20217;-60
2023/07/03 02:22:45;;;;;;;27.50;7.07;;;;;;;;;;5066464;28;20044;-60
2023/07/03 02:25:11;;;;;;;27.30;5.93;;;;;;;;;;5060620;28;20056;-60
2023/07/03 02:27:38;;;;;;;25.83;6.80;;;;;;;;;;5045451;28;20044;-60
2023/07/03 02:30:04;;;;;;;26.47;6.50;;;;;;;;;;5046398;28;20474;-61
2023/07/03 02:32:34;;;;;;;37.57;6.90;;;;;;;;;;5046578;28;20060;-61
2023/07/03 02:35:00;;;;;;;39.13;7.77;;;;;;;;;;5047804;28;20569;-61
2023/07/03 02:37:26;;;;;;;31.67;7.43;;;;;;;;;;5047224;28;20135;-61
2023/07/03 02:39:52;;;;;;;29.50;6.97;;;;;;;;;;5047777;28;20053;-60
2023/07/03 02:42:18;;;;;;;38.67;7.33;;;;;;;;;;5047927;28;20052;-60
2023/07/03 02:44:44;;;;;;;35.43;7.87;;;;;;;;;;5047124;28;20052;-61
2023/07/03 02:47:10;;;;;;;34.07;8.47;;;;;;;;;;5047743;28;20384;-61
2023/07/03 02:49:36;;;;;;;33.20;8.13;;;;;;;;;;5050632;28;20036;-60
2023/07/03 02:52:02;;;;;;;30.33;8.73;;;;;;;;;;5050613;28;20506;-61
2023/07/03 02:54:28;;;;;;;34.43;7.63;;;;;;;;;;5051328;28;20052;-61
2023/07/03 02:56:54;;;;;;;30.67;8.07;;;;;;;;;;5069624;28;20049;-61
2023/07/03 02:59:20;;;;;;;36.70;7.53;;;;;;;;;;5071046;28;20321;-61
2023/07/03 03:01:46;;;;;;;36.23;8.10;;;;;;;;;;5071099;28;20712;-60
2023/07/03 03:04:12;;;;;;;36.50;9.53;;;;;;;;;;5071341;28;20116;-61
2023/07/03 03:06:38;;;;;;;27.83;7.10;;;;;;;;;;5071379;28;20083;-60
2023/07/03 03:09:05;;;;;;;29.00;7.53;;;;;;;;;;5071323;28;20044;-61
2023/07/03 03:11:31;;;;;;;30.50;9.43;;;;;;;;;;5070617;28;20509;-61
2023/07/03 03:13:57;;;;;;;32.30;7.03;;;;;;;;;;5071226;28;20135;-62
2023/07/03 03:16:23;;;;;;;27.00;7.07;;;;;;;;;;5070935;28;20140;-61
2023/07/03 03:18:50;;;;;;;30.47;7.93;;;;;;;;;;5051777;28;20049;-61
2023/07/03 03:21:16;;;;;;;39.20;7.77;;;;;;;;;;5061361;28;20048;-61
2023/07/03 03:23:42;;;;;;;30.33;8.07;;;;;;;;;;5070807;28;20044;-61
2023/07/03 03:26:08;;;;;;;36.97;7.47;;;;;;;;;;5065319;28;20123;-61
2023/07/03 03:28:34;;;;;;;30.30;6.67;;;;;;;;;;5050264;28;20151;-61
2023/07/03 03:31:00;;;;;;;31.07;6.83;;;;;;;;;;5050756;28;20044;-61
2023/07/03 03:33:26;;;;;;;31.00;7.60;;;;;;;;;;5050799;28;20140;-61
2023/07/03 03:35:52;;;;;;;28.60;7.00;;;;;;;;;;5050310;28;20561;-60
2023/07/03 03:38:18;;;;;;;36.17;8.13;;;;;;;;;;5050148;28;20045;-61
2023/07/03 03:40:53;;;;;;;26.67;7.07;;;;;;;;;;5050412;28;20479;-61
2023/07/03 03:43:19;;;;;;;23.77;6.63;;;;;;;;;;5050381;28;20056;-61
2023/07/03 03:45:52;;;;;;;30.90;6.43;;;;;;;;;;5050671;28;20047;-60
2023/07/03 03:48:18;;;;;;;28.70;6.17;;;;;;;;;;5049737;28;20088;-61
2023/07/03 03:50:44;;;;;;;22.80;6.20;;;;;;;;;;5050586;28;20087;-62
2023/07/03 03:53:10;;;;;;;33.27;6.87;;;;;;;;;;5050292;28;20041;-61
2023/07/03 03:55:36;;;;;;;30.83;6.50;;;;;;;;;;5066044;28;20080;-61
2023/07/03 03:58:02;;;;;;;27.87;5.13;;;;;;;;;;5069493;28;20083;-61
2023/07/03 04:00:29;;;;;;;22.73;5.07;;;;;;;;;;5069703;28;20064;-61
2023/07/03 04:02:55;;;;;;;21.03;5.00;;;;;;;;;;5070186;28;20079;-62
2023/07/03 04:05:21;;;;;;;18.87;4.60;;;;;;;;;;5069989;28;20581;-60
2023/07/03 04:07:47;;;;;;;19.30;4.70;;;;;;;;;;5069468;28;20051;-61
2023/07/03 04:10:13;;;;;;;25.80;5.83;;;;;;;;;;5069850;28;20048;-60
2023/07/03 04:12:39;;;;;;;16.43;4.40;;;;;;;;;;5069679;28;20072;-61
2023/07/03 04:15:06;;;;;;;15.13;3.70;;;;;;;;;;5069890;28;20045;-61
2023/07/03 04:17:32;;;;;;;15.40;3.60;;;;;;;;;;5069535;28;20056;-60
2023/07/03 04:19:58;;;;;;;14.80;3.50;;;;;;;;;;5068962;28;20414;-60
2023/07/03 04:22:26;;;;;;;16.20;3.50;;;;;;;;;;5069866;28;20052;-61
2023/07/03 04:24:52;;;;;;;14.93;2.90;;;;;;;;;;5068218;28;20403;-61
2023/07/03 04:27:18;;;;;;;12.27;3.27;;;;;;;;;;5053572;28;20045;-61
2023/07/03 04:29:44;;;;;;;12.27;3.20;;;;;;;;;;5049565;28;20045;-61
2023/07/03 04:32:10;;;;;;;10.97;3.20;;;;;;;;;;5049177;28;20140;-61
2023/07/03 04:34:36;;;;;;;10.30;3.27;;;;;;;;;;5048655;28;20492;-61
2023/07/03 04:37:03;;;;;;;12.27;3.13;;;;;;;;;;5049162;28;20040;-61
2023/07/03 04:39:30;;;;;;;14.27;2.90;;;;;;;;;;5049453;28;20059;-61
2023/07/03 04:41:59;;;;;;;13.03;3.60;;;;;;;;;;5048835;28;20048;-61
2023/07/03 04:44:26;;;;;;;17.17;3.90;;;;;;;;;;5049426;28;20468;-61
2023/07/03 04:46:55;;;;;;;21.60;4.03;;;;;;;;;;5048603;28;20076;-61
2023/07/03 04:49:23;;;;;;;16.70;4.67;;;;;;;;;;5049106;28;20123;-61
2023/07/03 04:51:52;;;;;;;14.57;4.50;;;;;;;;;;5049022;28;20426;-61
2023/07/03 04:54:19;;;;;;;16.03;4.33;;;;;;;;;;5048013;28;20102;-61
2023/07/03 04:56:46;;;;;;;17.80;4.17;;;;;;;;;;5049003;28;20052;-61
2023/07/03 04:59:13;;;;;;;15.23;2.83;;;;;;;;;;5049091;28;20497;-61
2023/07/03 05:01:42;;;;;;;13.77;3.70;;;;;;;;;;5049338;28;20053;-61
2023/07/03 05:04:09;;;;;;;16.90;3.13;;;;;;;;;;5063558;28;20055;-61
2023/07/03 05:06:35;;;;;;;10.40;2.80;;;;;;;;;;5049745;28;20506;-60
2023/07/03 05:09:02;;;;;;;13.97;2.80;;;;;;;;;;5048876;28;20045;-61
2023/07/03 05:11:29;;;;;;;11.67;2.63;;;;;;;;;;5048332;28;20041;-61
2023/07/03 05:13:55;;;;;;;22.10;3.23;;;;;;;;;;5048079;28;20052;-61
2023/07/03 05:16:21;;;;;;;7.87;2.73;;;;;;;;;;5048384;28;20040;-61
2023/07/03 05:18:47;;;;;;;11.43;2.77;;;;;;;;;;5048492;28;20037;-60
2023/07/03 05:21:13;;;;;;;7.53;2.20;;;;;;;;;;5048958;28;20352;-61
2023/07/03 05:23:39;;;;;;;13.00;3.40;;;;;;;;;;5051176;28;20062;-61
2023/07/03 05:26:05;;;;;;;16.37;3.10;;;;;;;;;;5068194;28;20047;-61
2023/07/03 05:28:31;;;;;;;17.30;3.50;;;;;;;;;;5063952;28;20039;-61
2023/07/03 05:30:58;;;;;;;11.10;2.83;;;;;;;;;;5068193;28;20074;-61
2023/07/03 05:33:25;;;;;;;12.77;2.70;;;;;;;;;;5068670;28;20056;-61
2023/07/03 05:35:51;;;;;;;12.57;3.37;;;;;;;;;;5067564;28;20135;-61
2023/07/03 05:38:17;;;;;;;12.63;3.10;;;;;;;;;;5047375;28;20053;-61
2023/07/03 05:40:44;;;;;;;13.13;2.70;;;;;;;;;;5048292;28;20080;-62
2023/07/03 05:43:10;;;;;;;10.70;2.47;;;;;;;;;;5048373;28;20049;-61
2023/07/03 05:45:36;;;;;;;13.43;2.43;;;;;;;;;;5048001;28;20118;-61
2023/07/03 05:48:02;;;;;;;11.60;2.60;;;;;;;;;;5046936;28;20041;-61
2023/07/03 05:50:28;;;;;;;12.57;2.17;;;;;;;;;;5047574;28;20059;-61
2023/07/03 05:52:54;;;;;;;17.07;3.13;;;;;;;;;;5048239;28;20048;-61
2023/07/03 05:55:20;;;;;;;12.80;2.07;;;;;;;;;;5047779;28;20048;-61
2023/07/03 05:57:46;;;;;;;12.37;2.33;;;;;;;;;;5048065;28;20076;-61
2023/07/03 06:00:13;;;;;;;15.43;2.47;;;;;;;;;;5047851;28;20110;-61
2023/07/03 06:02:43;;;;;;;9.17;2.20;;;;;;;;;;5059714;28;20087;-61
2023/07/03 06:05:09;;;;;;;13.03;2.30;;;;;;;;;;5067760;28;20090;-61
2023/07/03 06:07:35;;;;;;;10.70;2.67;;;;;;;;;;5068252;28;20041;-61
2023/07/03 06:10:01;;;;;;;18.87;2.60;;;;;;;;;;5052080;28;20055;-61
2023/07/03 06:12:29;;;;;;;7.23;1.93;;;;;;;;;;5047205;28;20033;-60
2023/07/03 06:14:57;;;;;;;9.70;2.30;;;;;;;;;;5047908;28;20095;-61
2023/07/03 06:17:23;;;;;;;19.87;3.70;;;;;;;;;;5047941;28;20045;-61
2023/07/03 06:19:49;;;;;;;8.70;2.53;;;;;;;;;;5047744;28;20044;-61
2023/07/03 06:22:15;;;;;;;9.23;1.90;;;;;;;;;;5048048;28;20045;-61
2023/07/03 06:24:41;;;;;;;10.90;2.03;;;;;;;;;;5050473;28;20053;-61
2023/07/03 06:27:07;;;;;;;11.97;2.83;;;;;;;;;;5051701;28;20388;-61
2023/07/03 06:29:33;;;;;;;10.53;1.87;;;;;;;;;;5064652;28;20041;-61
2023/07/03 06:31:59;;;;;;;10.43;2.03;;;;;;;;;;5071618;28;20040;-61
2023/07/03 06:34:25;;;;;;;9.77;2.63;;;;;;;;;;5071552;28;20465;-61
2023/07/03 06:36:52;;;;;;;10.60;2.10;;;;;;;;;;5071159;28;20072;-61
2023/07/03 06:39:18;;;;;;;7.90;1.97;;;;;;;;;;5071379;28;20727;-61
2023/07/03 06:41:44;;;;;;;11.77;2.87;;;;;;;;;;5071435;28;20040;-61
2023/07/03 06:44:14;;;;;;;13.93;2.57;;;;;;;;;;5071524;28;20102;-61
2023/07/03 06:46:40;;;;;;;13.93;3.20;;;;;;;;;;5071240;28;20045;-61
2023/07/03 06:49:06;;;;;;;8.40;2.03;;;;;;;;;;5067523;28;20044;-61
2023/07/03 06:51:32;;;;;;;10.03;2.30;;;;;;;;;;5051244;28;20410;-61
2023/07/03 06:53:58;;;;;;;11.87;2.20;;;;;;;;;;5068980;28;20083;-61
2023/07/03 06:56:25;;;;;;;10.30;2.00;;;;;;;;;;5066409;28;20037;-60
2023/07/03 06:58:51;;;;;;;14.37;2.67;;;;;;;;;;5056644;28;20364;-61
2023/07/03 07:01:18;;;;;;;12.97;2.37;;;;;;;;;;5051685;28;20141;-61
2023/07/03 07:03:45;;;;;;;8.77;2.20;;;;;;;;;;5050563;28;20415;-61
2023/07/03 07:06:12;;;;;;;10.40;2.53;;;;;;;;;;5050994;28;20479;-61
2023/07/03 07:08:38;;;;;;;10.43;2.40;;;;;;;;;;5052622;28;20037;-61
2023/07/03 07:11:08;;;;;;;12.43;2.57;;;;;;;;;;5053401;28;20093;-61
2023/07/03 07:13:34;;;;;;;11.53;2.60;;;;;;;;;;5071408;28;20059;-60
2023/07/03 07:16:00;;;;;;;12.27;2.47;;;;;;;;;;5066487;28;20489;-61
2023/07/03 07:18:25;;;;;;;9.27;3.70;;;;;;;;;;5071109;28;20087;-61
2023/07/03 07:20:54;;;;;;;10.87;2.60;;;;;;;;;;5070188;28;20051;-61
2023/07/03 07:23:20;;;;;;;10.50;2.50;;;;;;;;;;5066647;28;20316;-61
2023/07/03 07:25:52;;;;;;;9.63;2.13;;;;;;;;;;5057929;28;20406;-61
2023/07/03 07:28:18;;;;;;;10.20;2.13;;;;;;;;;;5070981;28;20040;-61
2023/07/03 07:30:44;;;;;;;11.10;2.27;;;;;;;;;;5069143;28;20119;-60
2023/07/03 07:33:10;;;;;;;10.37;1.83;;;;;;;;;;5070178;28;20526;-61
2023/07/03 07:35:36;;;;;;;8.03;1.83;;;;;;;;;;5060839;28;20037;-61
2023/07/03 07:38:02;;;;;;;6.40;2.13;;;;;;;;;;5050673;28;20049;-61
2023/07/03 07:40:28;;;;;;;9.80;2.00;;;;;;;;;;5051140;28;20059;-62
2023/07/03 07:42:54;;;;;;;8.07;2.30;;;;;;;;;;5057706;28;20571;-61
2023/07/03 07:45:20;;;;;;;10.13;1.90;;;;;;;;;;5055897;28;20174;-61
2023/07/03 07:47:46;;;;;;;6.63;1.40;;;;;;;;;;5067963;28;20387;-61
2023/07/03 07:50:12;;;;;;;12.03;1.80;;;;;;;;;;5050252;28;20041;-61
2023/07/03 07:52:38;;;;;;;10.00;2.20;;;;;;;;;;5050118;28;20075;-61
2023/07/03 07:55:04;;;;;;;6.43;1.20;;;;;;;;;;5049952;28;20411;-61
2023/07/03 07:57:31;;;;;;;8.97;2.40;;;;;;;;;;5049604;28;20136;-61
2023/07/03 07:59:57;;;;;;;8.60;1.43;;;;;;;;;;5049917;28;20128;-61
2023/07/03 08:02:23;;;;;;;7.87;2.13;;;;;;;;;;5049925;28;20048;-61
2023/07/03 08:04:49;;;;;;;7.30;1.73;;;;;;;;;;5049642;28;20433;-61
2023/07/03 08:07:14;;;;;;;6.57;2.00;;;;;;;;;;5049791;28;20049;-60
2023/07/03 08:09:40;;;;;;;3.80;1.10;;;;;;;;;;5048370;28;20048;-61
2023/07/03 08:12:07;;;;;;;4.57;1.47;;;;;;;;;;5049403;28;20052;-60
2023/07/03 08:14:33;;;;;;;7.13;1.43;;;;;;;;;;5049475;28;20437;-61
2023/07/03 08:16:59;;;;;;;7.13;1.70;;;;;;;;;;5049415;28;20048;-61
2023/07/03 08:19:24;;;;;;;7.60;1.43;;;;;;;;;;5049295;28;20041;-60
2023/07/03 08:21:50;;;;;;;6.73;1.27;;;;;;;;;;5049409;28;20053;-60
2023/07/03 08:24:17;;;;;;;7.90;1.30;;;;;;;;;;5048118;28;20049;-60
2023/07/03 08:26:48;;;;;;;5.23;1.60;;;;;;;;;;5047678;28;20415;-60
2023/07/03 08:29:14;;;;;;;7.20;1.77;;;;;;;;;;5049408;28;20049;-60
2023/07/03 08:31:40;;;;;;;5.07;1.37;;;;;;;;;;5049463;28;20057;-61
2023/07/03 08:34:07;;;;;;;6.80;1.50;;;;;;;;;;5048657;28;20053;-61
2023/07/03 08:36:33;;;;;;;6.70;1.33;;;;;;;;;;5049117;28;20175;-61
2023/07/03 08:39:02;;;;;;;8.23;1.30;;;;;;;;;;5049136;28;20684;-60
2023/07/03 08:41:28;;;;;;;9.23;1.87;;;;;;;;;;5049297;28;20041;-60
2023/07/03 08:43:56;;;;;;;6.23;1.60;;;;;;;;;;5049123;28;20137;-60
2023/07/03 08:46:26;;;;;;;6.73;1.50;;;;;;;;;;5048572;28;20044;-60
2023/07/03 08:48:55;;;;;;;7.00;1.83;;;;;;;;;;5048426;28;20041;-61
2023/07/03 08:51:22;;;;;;;7.20;1.50;;;;;;;;;;5048903;28;20458;-61
2023/07/03 08:53:50;;;;;;;4.00;1.40;;;;;;;;;;5048982;28;20083;-60
2023/07/03 08:56:25;;;;;;;6.20;1.30;;;;;;;;;;5048475;28;20045;-60
2023/07/03 08:58:52;;;;;;;8.00;1.83;;;;;;;;;;5049099;28;20388;-60
2023/07/03 09:01:27;;;;;;;6.93;1.93;;;;;;;;;;5048825;28;20044;-61
2023/07/03 09:03:59;;;;;;;5.60;1.80;;;;;;;;;;5048741;28;20044;-60
2023/07/03 09:06:33;;;;;;;6.95;2.05;;;;;;;;;;5048037;28;20105;-60
2023/07/03 09:09:11;;;;;;;8.90;2.37;;;;;;;;;;5047648;28;20049;-60
2023/07/03 09:11:40;;;;;;;7.40;1.77;;;;;;;;;;5048624;28;20533;-60
2023/07/03 09:14:09;;;;;;;9.37;2.07;;;;;;;;;;5047823;28;20479;-60
2023/07/03 09:16:38;;;;;;;6.87;1.83;;;;;;;;;;5047053;28;20518;-61
2023/07/03 09:19:06;;;;;;;11.23;2.17;;;;;;;;;;5047982;28;20048;-60
2023/07/03 09:21:33;;;;;;;6.13;2.00;;;;;;;;;;5048370;28;20041;-60
2023/07/03 09:24:02;;;;;;;5.90;1.70;;;;;;;;;;5048181;28;20060;-60
2023/07/03 09:26:34;;;;;;;6.93;1.73;;;;;;;;;;5048308;28;20087;-60
2023/07/03 09:29:00;;;;;;;18.13;3.30;;;;;;;;;;5047941;28;20407;-60
2023/07/03 09:31:27;;;;;;;6.97;1.77;;;;;;;;;;5048169;28;20045;-61
2023/07/03 09:33:53;;;;;;;10.63;1.80;;;;;;;;;;5047958;28;20530;-60
2023/07/03 09:36:22;;;;;;;9.53;2.60;;;;;;;;;;5048040;28;20499;-60
2023/07/03 09:38:48;;;;;;;11.07;1.80;;;;;;;;;;5047931;28;20095;-60
2023/07/03 09:41:23;;;;;;;7.77;2.47;;;;;;;;;;5048220;28;20153;-60
2023/07/03 09:43:49;;;;;;;7.93;1.70;;;;;;;;;;5047629;28;20045;-61
2023/07/03 09:46:16;;;;;;;7.00;1.50;;;;;;;;;;5047975;28;20041;-61
2023/07/03 09:48:43;;;;;;;4.07;1.03;;;;;;;;;;5047901;28;20045;-61
2023/07/03 09:51:21;;;;;;;10.33;2.33;;;;;;;;;;5047868;28;20037;-60
2023/07/03 09:53:47;;;;;;;6.23;1.53;;;;;;;;;;5047588;28;20498;-61
2023/07/03 09:56:14;;;;;;;8.17;1.60;;;;;;;;;;5046148;28;20447;-60
2023/07/03 09:58:45;;;;;;;4.60;1.00;;;;;;;;;;5047519;28;20045;-60
2023/07/03 10:01:16;;;;;;;5.67;1.37;;;;;;;;;;5047870;28;20037;-60
2023/07/03 10:03:42;;;;;;;3.83;1.27;;;;;;;;;;5047924;28;20041;-61
2023/07/03 10:06:15;;;;;;;4.63;1.20;;;;;;;;;;5047204;28;20658;-61
2023/07/03 10:08:45;;;;;;;6.67;1.30;;;;;;;;;;5047688;28;20057;-61
2023/07/03 10:11:12;;;;;;;6.77;1.40;;;;;;;;;;5047639;28;20052;-61
2023/07/03 10:13:42;;;;;;;4.43;1.53;;;;;;;;;;5047736;28;20090;-61
2023/07/03 10:16:09;;;;;;;5.27;1.23;;;;;;;;;;5047499;28;20585;-62
2023/07/03 10:18:37;;;;;;;6.77;1.20;;;;;;;;;;5047435;28;20406;-62
2023/07/03 10:21:04;;;;;;;5.47;1.30;;;;;;;;;;5047619;28;20037;-61
2023/07/03 10:23:32;;;;;;;4.67;1.30;;;;;;;;;;5047591;28;20079;-61
2023/07/03 10:26:04;;;;;;;3.70;1.03;;;;;;;;;;5047611;28;20045;-61
2023/07/03 10:28:34;;;;;;;6.05;1.60;;;;;;;;;;5047025;28;20052;-61
2023/07/03 10:31:06;;;;;;;4.53;1.30;;;;;;;;;;5047541;28;20045;-61
2023/07/03 10:33:38;;;;;;;5.97;1.37;;;;;;;;;;5047658;28;20078;-61
2023/07/03 10:36:07;;;;;;;4.97;1.70;;;;;;;;;;5047634;28;20057;-60
2023/07/03 10:38:34;;;;;;;5.17;1.50;;;;;;;;;;5047732;28;20054;-60
2023/07/03 10:41:07;;;;;;;6.10;2.07;;;;;;;;;;5047459;28;20139;-61
2023/07/03 10:43:36;;;;;;;4.90;1.27;;;;;;;;;;5046968;28;20060;-61
2023/07/03 10:46:05;;;;;;;8.00;1.83;;;;;;;;;;5047338;28;20178;-60
2023/07/03 10:48:33;;;;;;;6.53;1.57;;;;;;;;;;5047584;28;20530;-59
2023/07/03 10:51:12;;;;;;;9.63;1.37;;;;;;;;;;5046841;28;20053;-60
2023/07/03 10:53:55;;;;;;;3.97;1.07;;;;;;;;;;5047180;28;20482;-60
2023/07/03 10:56:21;;;;;;;;;;;;;;;;;;5047718;28;20053;-60
2023/07/03 10:58:56;;;;;;;9.10;1.83;;;;;;;;;;5046820;28;19921;-60
2023/07/03 11:01:26;;;;;;;7.83;1.73;;;;;;;;;;5047220;28;20053;-61
2023/07/03 11:03:52;;;;;;;7.63;2.00;;;;;;;;;;5047191;28;20041;-60
2023/07/03 11:06:21;;;;;;;7.10;1.40;;;;;;;;;;5046717;28;20099;-60
2023/07/03 11:08:50;;;;;;;5.03;1.50;;;;;;;;;;5047170;28;20170;-60
2023/07/03 11:11:16;;;;;;;3.93;1.13;;;;;;;;;;5049547;28;20049;-60
2023/07/03 11:13:51;;;;;;;4.63;1.17;;;;;;;;;;5050593;28;20103;-60
2023/07/03 11:16:18;;;;;;;6.03;1.40;;;;;;;;;;5050441;28;20052;-60
2023/07/03 11:18:50;;;;;;;5.00;1.43;;;;;;;;;;5050449;28;20049;-60
2023/07/03 11:21:35;;;;;;;7.28;1.25;;;;;;;;;;5050641;28;20071;-59
2023/07/03 11:24:04;;;;;;;9.10;1.50;;;;;;;;;;5049896;28;20071;-60
2023/07/03 11:26:37;;;;;;;5.50;1.30;;;;;;;;;;5050559;28;20053;-60
2023/07/03 11:29:06;;;;;;;4.50;1.50;;;;;;;;;;5050367;28;20102;-60
2023/07/03 11:31:32;;;;;;;5.40;1.50;;;;;;;;;;5050764;28;20037;-60
2023/07/03 11:33:58;;;;;;;6.87;1.77;;;;;;;;;;5050425;28;20049;-60
2023/07/03 11:36:35;;;;;;;6.90;1.60;;;;;;;;;;5049595;28;20048;-61
2023/07/03 11:39:11;;;;;;;5.87;1.50;;;;;;;;;;5049751;28;20118;-61
2023/07/03 11:41:48;;;;;;;5.40;1.40;;;;;;;;;;5050456;28;20147;-61
2023/07/03 11:44:28;;;;;;;8.93;2.10;;;;;;;;;;5050455;28;20087;-61
2023/07/03 11:46:55;;;;;;;6.40;1.50;;;;;;;;;;5049488;28;20403;-60
2023/07/03 11:49:26;;;;;;;6.20;1.33;;;;;;;;;;5049977;28;20128;-61
2023/07/03 11:51:56;;;;;;;4.65;1.38;;;;;;;;;;5050094;28;20131;-61
2023/07/03 11:54:24;;;;;;;7.07;1.48;;;;;;;;;;5050037;28;20142;-61
2023/07/03 11:56:58;;;;;;;5.03;1.47;;;;;;;;;;5049428;28;20041;-61
2023/07/03 11:59:26;;;;;;;5.67;1.30;;;;;;;;;;5049966;28;20041;-60
2023/07/03 12:01:53;;;;;;;4.80;1.37;;;;;;;;;;5050190;28;20518;-60
2023/07/03 12:04:38;;;;;;;6.90;1.80;;;;;;;;;;5049482;28;20471;-60
2023/07/03 12:07:04;;;;;;;6.60;1.00;;;;;;;;;;5049581;28;20048;-60
2023/07/03 12:09:31;;;;;;;6.83;1.87;;;;;;;;;;5049783;28;20041;-60
2023/07/03 12:12:00;;;;;;;7.03;1.57;;;;;;;;;;5049236;28;20084;-61
2023/07/03 12:14:42;;;;;;;10.40;1.67;;;;;;;;;;5049619;28;20049;-60
2023/07/03 12:17:18;;;;;;;8.10;1.53;;;;;;;;;;5049676;28;20092;-61
2023/07/03 12:19:44;;;;;;;5.27;1.27;;;;;;;;;;5049771;28;20045;-60
2023/07/03 12:22:18;;;;;;;8.20;1.53;;;;;;;;;;5048588;28;20041;-60
2023/07/03 12:24:44;;;;;;;5.03;1.83;;;;;;;;;;5049230;28;20091;-60
2023/07/03 12:27:10;;;;;;;6.40;1.60;;;;;;;;;;5049521;28;20044;-60
2023/07/03 12:29:44;;;;;;;4.97;1.50;;;;;;;;;;5049295;28;20041;-60
2023/07/03 12:32:10;;;;;;;9.07;1.60;;;;;;;;;;5049296;28;20037;-60
2023/07/03 12:34:37;;;;;;;5.70;1.10;;;;;;;;;;5049280;28;20554;-60
2023/07/03 12:37:06;;;;;;;5.53;1.40;;;;;;;;;;5048352;28;20080;-59
2023/07/03 12:39:32;;;;;;;5.43;1.50;;;;;;;;;;5049297;28;20053;-60
2023/07/03 12:42:05;;;;;;;7.50;1.60;;;;;;;;;;5048978;28;20049;-60
2023/07/03 12:44:31;;;;;;;8.20;1.20;;;;;;;;;;5049065;28;20493;-60
2023/07/03 12:47:06;;;;;;;5.77;1.53;;;;;;;;;;5048679;28;20087;-60
2023/07/03 12:49:32;;;;;;;5.67;1.47;;;;;;;;;;5049032;28;20045;-60
2023/07/03 12:51:58;;;;;;;8.87;1.50;;;;;;;;;;5049446;28;20045;-60
2023/07/03 12:54:24;;;;;;;6.40;1.70;;;;;;;;;;5048713;28;20414;-60
2023/07/03 12:56:52;;;;;;;5.70;1.50;;;;;;;;;;5048158;28;20049;-60
2023/07/03 12:59:20;;;;;;;5.37;1.53;;;;;;;;;;5048959;28;20114;-60
2023/07/03 13:01:50;;;;;;;5.47;1.60;;;;;;;;;;5048703;28;20048;-60
2023/07/03 13:04:25;;;;;;;6.30;1.80;;;;;;;;;;5048820;28;20084;-60
2023/07/03 13:06:51;;;;;;;8.67;1.60;;;;;;;;;;5048928;28;20999;-60
2023/07/03 13:09:16;;;;;;;4.50;1.30;;;;;;;;;;5048135;28;20049;-61
2023/07/03 13:11:44;;;;;;;5.57;1.40;;;;;;;;;;5048196;28;20685;-60
2023/07/03 13:14:14;;;;;;;6.83;1.67;;;;;;;;;;5048757;28;20499;-60
2023/07/03 13:16:42;;;;;;;6.67;1.57;;;;;;;;;;5048459;28;20049;-61
2023/07/03 13:19:08;;;;;;;6.27;1.50;;;;;;;;;;5048954;28;20087;-60
2023/07/03 13:21:35;;;;;;;6.00;1.33;;;;;;;;;;5047912;28;20068;-59
2023/07/03 13:24:09;;;;;;;5.40;1.37;;;;;;;;;;5048083;28;20052;-60
2023/07/03 13:26:36;;;;;;;7.37;1.47;;;;;;;;;;5048183;28;20590;-59
2023/07/03 13:29:03;;;;;;;9.17;1.63;;;;;;;;;;5048241;28;20085;-62
2023/07/03 13:31:33;;;;;;;8.10;1.47;;;;;;;;;;5048476;28;20100;-60
2023/07/03 13:34:18;;;;;;;4.17;1.10;;;;;;;;;;5047070;28;20064;-60
2023/07/03 13:36:44;;;;;;;8.40;1.43;;;;;;;;;;5047877;28;20049;-60
2023/07/03 13:39:12;;;;;;;7.60;1.57;;;;;;;;;;5047970;28;20519;-60
2023/07/03 13:41:38;;;;;;;8.83;1.40;;;;;;;;;;5048257;28;20079;-60
2023/07/03 13:44:05;;;;;;;7.40;1.33;;;;;;;;;;5047849;28;20045;-60
2023/07/03 13:46:33;;;;;;;7.43;2.57;;;;;;;;;;5047429;28;20514;-61
2023/07/03 13:48:59;;;;;;;6.40;1.53;;;;;;;;;;5048039;28;20053;-60
2023/07/03 13:51:25;;;;;;;9.37;1.53;;;;;;;;;;5047889;28;20048;-60
2023/07/03 13:53:52;;;;;;;9.87;1.53;;;;;;;;;;5047955;28;20045;-60
2023/07/03 13:56:21;;;;;;;7.37;1.63;;;;;;;;;;5047898;28;20045;-60
2023/07/03 13:58:47;;;;;;;6.97;1.20;;;;;;;;;;5047756;28;20487;-60
2023/07/03 14:01:13;;;;;;;7.00;1.27;;;;;;;;;;5047732;28;20051;-61
2023/07/03 14:03:39;;;;;;;7.83;1.70;;;;;;;;;;5047873;28;20049;-61
2023/07/03 14:06:06;;;;;;;8.90;1.73;;;;;;;;;;5047381;28;20517;-61
2023/07/03 14:08:32;;;;;;;7.03;1.30;;;;;;;;;;5047861;28;20120;-61
2023/07/03 14:10:58;;;;;;;7.97;1.77;;;;;;;;;;5047779;28;20041;-60
2023/07/03 14:13:24;;;;;;;7.87;1.83;;;;;;;;;;5047028;28;20067;-60
2023/07/03 14:15:50;;;;;;;6.43;1.40;;;;;;;;;;5047643;28;20143;-61
2023/07/03 14:18:17;;;;;;;7.50;1.53;;;;;;;;;;5047797;28;20683;-61
2023/07/03 14:20:44;;;;;;;6.50;1.10;;;;;;;;;;5047637;28;20099;-60
2023/07/03 14:23:10;;;;;;;7.67;1.30;;;;;;;;;;5047633;28;20033;-61
2023/07/03 14:25:37;;;;;;;5.80;1.30;;;;;;;;;;5047546;28;20040;-60
2023/07/03 14:28:04;;;;;;;9.50;2.00;;;;;;;;;;5046882;28;20128;-60
2023/07/03 14:30:30;;;;;;;7.87;1.50;;;;;;;;;;5047832;28;20122;-60
2023/07/03 14:32:56;;;;;;;8.43;1.50;;;;;;;;;;5054537;28;20052;-61
2023/07/03 14:35:22;;;;;;;9.17;1.90;;;;;;;;;;5067264;28;20545;-61
2023/07/03 14:37:48;;;;;;;7.07;1.40;;;;;;;;;;5065694;28;20048;-60
2023/07/03 14:40:14;;;;;;;10.03;1.60;;;;;;;;;;5063232;28;20048;-60